createdAt,value
2023-02-05T00:45:22.057Z,21.50
2023-02-05T00:47:50.672Z,21.60
2023-02-05T00:50:19.275Z,21.60
2023-02-05T00:52:47.656Z,21.50
2023-02-05T00:55:16.111Z,21.50
2023-02-05T00:57:44.672Z,21.50
2023-02-05T01:47:05.240Z,21.40
2023-02-05T01:49:40.165Z,21.40
2023-02-05T01:52:13.210Z,21.40
2023-02-05T01:54:46.945Z,21.40
2023-02-05T01:57:21.827Z,21.40
2023-02-05T01:59:51.664Z,21.30
2023-02-05T02:46:45.299Z,21.30
2023-02-05T02:49:21.549Z,21.30
2023-02-05T02:51:52.278Z,21.40
2023-02-05T02:54:23.895Z,21.40
2023-02-05T02:56:53.824Z,21.40
2023-02-05T02:59:27.089Z,21.20
2023-02-05T03:48:02.566Z,21.30
2023-02-05T03:50:39.742Z,21.50
2023-02-05T03:53:20.823Z,21.40
2023-02-05T03:56:05.257Z,21.30
2023-02-05T03:58:50.578Z,21.40
2023-02-05T04:45:37.108Z,21.20
2023-02-05T04:48:06.624Z,21.20
2023-02-05T04:50:35.272Z,21.20
2023-02-05T04:53:03.863Z,21.20
2023-02-05T04:55:33.426Z,21.20
2023-02-05T04:58:02.042Z,21.10
2023-02-05T05:48:03.281Z,21.10
2023-02-05T05:50:31.987Z,21.10
2023-02-05T05:53:03.211Z,21.10
2023-02-05T05:55:32.429Z,21.10
2023-02-05T05:58:01.250Z,21.10
2023-02-05T06:00:30.248Z,21.20
2023-02-05T06:02:59.034Z,21.10
2023-02-05T06:05:29.252Z,21.00
2023-02-05T06:07:58.223Z,21.10
2023-02-05T06:10:27.470Z,21.10
2023-02-05T06:12:58.137Z,21.10
2023-02-05T06:15:27.268Z,21.10
2023-02-05T06:17:56.203Z,21.10
2023-02-05T06:20:24.881Z,21.10
2023-02-05T06:22:54.867Z,21.10
2023-02-05T06:25:23.547Z,21.10
2023-02-05T06:27:52.125Z,21.10
2023-02-05T06:30:21.114Z,21.10
2023-02-05T06:32:49.618Z,21.10
2023-02-05T06:35:18.492Z,21.00
2023-02-05T06:37:47.803Z,21.00
2023-02-05T06:40:22.289Z,21.10
2023-02-05T06:42:50.788Z,21.10
2023-02-05T06:45:19.421Z,21.00
2023-02-05T06:47:48.108Z,21.10
2023-02-05T06:50:17.274Z,21.00
2023-02-05T06:52:46.263Z,20.90
2023-02-05T06:55:14.734Z,21.10
2023-02-05T06:57:44.965Z,21.10
2023-02-05T07:00:15.854Z,21.00
2023-02-05T07:02:44.670Z,21.10
2023-02-05T07:05:13.524Z,21.00
2023-02-05T07:07:42.024Z,21.00
2023-02-05T07:10:11.163Z,21.10
2023-02-05T07:12:39.726Z,21.00
2023-02-05T07:15:10.205Z,20.90
2023-02-05T07:17:39.444Z,21.00
2023-02-05T07:20:09.498Z,21.10
2023-02-05T07:22:37.880Z,20.90
2023-02-05T07:25:07.215Z,21.10
2023-02-05T07:27:35.801Z,21.00
2023-02-05T07:30:05.296Z,21.10
2023-02-05T07:32:35.130Z,21.00
2023-02-05T07:35:03.872Z,21.00
2023-02-05T07:37:33.285Z,21.00
2023-02-05T07:40:03.127Z,21.10
2023-02-05T07:42:32.620Z,21.00
2023-02-05T07:45:03.563Z,21.00
2023-02-05T07:47:32.360Z,21.00
2023-02-05T07:50:02.516Z,21.00
2023-02-05T07:52:31.581Z,21.00
2023-02-05T07:55:01.565Z,21.00
2023-02-05T07:57:30.100Z,20.90
2023-02-05T07:59:58.471Z,21.00
2023-02-05T08:02:27.156Z,20.80
2023-02-05T08:04:55.572Z,20.80
2023-02-05T08:07:25.427Z,20.80
2023-02-05T08:09:54.105Z,20.80
2023-02-05T08:12:22.952Z,20.90
2023-02-05T08:14:52.724Z,21.20
2023-02-05T08:17:21.248Z,21.40
2023-02-05T08:19:49.675Z,21.80
2023-02-05T08:22:18.335Z,22.10
2023-02-05T08:24:48.385Z,22.30
2023-02-05T08:27:16.950Z,22.60
2023-02-05T08:29:48.945Z,22.70
2023-02-05T08:32:17.780Z,22.80
2023-02-05T08:34:46.802Z,22.50
2023-02-05T08:37:15.507Z,22.60
2023-02-05T08:39:44.191Z,22.70
2023-02-05T08:42:14.390Z,22.60
2023-02-05T08:44:42.910Z,22.60
2023-02-05T08:47:11.321Z,22.40
2023-02-05T08:49:40.009Z,22.40
2023-02-05T08:52:08.520Z,22.30
2023-02-05T08:54:37.164Z,22.20
2023-02-05T08:57:05.765Z,22.10
2023-02-05T08:59:35.743Z,22.10
2023-02-05T09:02:05.044Z,22.00
2023-02-05T09:04:33.726Z,21.90
2023-02-05T09:07:02.185Z,21.90
2023-02-05T09:09:32.835Z,21.90
2023-02-05T09:12:01.199Z,21.80
2023-02-05T09:14:36.067Z,21.80
2023-02-05T09:17:07.877Z,21.70
2023-02-05T09:19:37.490Z,21.70
2023-02-05T09:22:07.260Z,21.70
2023-02-05T09:24:35.713Z,21.60
2023-02-05T09:27:06.353Z,21.60
2023-02-05T09:29:35.205Z,21.60
2023-02-05T09:32:05.322Z,21.50
2023-02-05T09:34:34.201Z,21.50
2023-02-05T09:37:03.119Z,21.50
2023-02-05T09:40:12.316Z,21.50
2023-02-05T09:42:32.850Z,21.50
2023-02-05T09:45:17.815Z,21.50
2023-02-05T09:47:57.422Z,21.50
2023-02-05T09:50:30.100Z,21.50
2023-02-05T09:53:05.759Z,21.50
2023-02-05T09:55:39.976Z,21.50
2023-02-05T09:58:13.790Z,21.50
2023-02-05T10:00:49.722Z,21.40
2023-02-05T10:03:28.045Z,21.40
2023-02-05T10:06:15.385Z,21.50
2023-02-05T10:08:55.148Z,21.40
2023-02-05T10:11:35.312Z,21.50
2023-02-05T10:14:15.713Z,21.40
2023-02-05T10:17:07.289Z,21.40
2023-02-05T10:20:07.264Z,21.40
2023-02-05T10:22:46.812Z,21.40
2023-02-05T10:25:45.266Z,21.30
2023-02-05T10:28:42.075Z,21.40
2023-02-05T10:31:25.019Z,21.30
2023-02-05T10:33:58.635Z,21.30
2023-02-05T10:36:28.996Z,21.30
2023-02-05T10:38:59.379Z,21.30
2023-02-05T10:41:33.910Z,21.30
2023-02-05T10:44:12.358Z,21.30
2023-02-05T10:46:42.819Z,21.30
2023-02-05T10:49:18.011Z,21.30
2023-02-05T10:51:48.150Z,21.30
2023-02-05T10:54:22.381Z,21.30
2023-02-05T10:56:50.979Z,21.30
2023-02-05T10:59:27.000Z,21.30
2023-02-05T11:01:58.732Z,21.30
2023-02-05T11:04:38.921Z,21.40
2023-02-05T11:07:15.368Z,21.30
2023-02-05T11:09:46.115Z,21.30
2023-02-05T11:12:24.452Z,21.30
2023-02-05T11:14:59.856Z,21.30
2023-02-05T11:17:33.887Z,21.40
2023-02-05T11:20:14.477Z,21.30
2023-02-05T11:23:18.189Z,21.20
2023-02-05T11:25:53.764Z,21.20
2023-02-05T11:28:25.654Z,21.20
2023-02-05T11:30:55.115Z,21.20
2023-02-05T11:33:32.407Z,21.20
2023-02-05T11:36:05.282Z,21.20
2023-02-05T11:38:46.348Z,21.30
2023-02-05T11:41:27.321Z,21.50
2023-02-05T11:43:57.800Z,21.30
2023-02-05T11:46:29.291Z,21.30
2023-02-05T11:49:00.470Z,21.20
2023-02-05T11:51:41.318Z,21.40
2023-02-05T11:54:22.076Z,21.30
2023-02-05T11:57:07.588Z,21.30
2023-02-05T11:59:36.756Z,21.40
2023-02-05T12:02:33.598Z,21.50
2023-02-05T12:05:13.413Z,21.70
2023-02-05T12:07:48.804Z,21.70
2023-02-05T12:10:34.246Z,21.70
2023-02-05T12:15:57.719Z,21.80
2023-02-05T12:18:42.362Z,21.90
2023-02-05T12:21:22.879Z,21.80
2023-02-05T12:24:16.578Z,21.90
2023-02-05T12:26:49.970Z,22.00
2023-02-05T12:29:47.944Z,22.00
2023-02-05T12:32:33.735Z,21.90
2023-02-05T12:35:25.492Z,21.90
2023-02-05T12:38:05.926Z,22.00
2023-02-05T12:40:59.073Z,21.90
2023-02-05T12:43:39.647Z,21.90
2023-02-05T12:46:26.250Z,22.00
2023-02-05T12:49:14.792Z,21.80
2023-02-05T12:51:58.950Z,21.80
2023-02-05T12:54:55.573Z,21.90
2023-02-05T12:57:29.644Z,21.80
2023-02-05T13:00:04.043Z,21.80
2023-02-05T13:02:40.292Z,21.80
2023-02-05T13:05:21.084Z,21.80
2023-02-05T13:07:57.885Z,21.80
2023-02-05T13:10:36.587Z,21.90
2023-02-05T13:13:14.441Z,21.90
2023-02-05T13:15:52.190Z,21.90
2023-02-05T13:21:34.483Z,21.80
2023-02-05T13:24:37.767Z,21.90
2023-02-05T13:27:33.178Z,21.80
2023-02-05T13:30:10.573Z,21.80
2023-02-05T13:32:46.304Z,21.90
2023-02-05T13:35:19.801Z,22.10
2023-02-05T13:38:27.096Z,22.20
2023-02-05T13:41:31.910Z,22.40
2023-02-05T13:44:35.912Z,22.60
2023-02-05T13:47:47.458Z,22.70
2023-02-05T13:51:04.935Z,22.80
2023-02-05T13:53:56.322Z,23.00
2023-02-05T13:56:49.479Z,23.20
2023-02-05T13:59:23.963Z,23.20
2023-02-05T14:01:57.843Z,23.20
2023-02-05T14:04:32.693Z,23.20
2023-02-05T14:07:05.394Z,23.10
2023-02-05T14:09:42.326Z,23.00
2023-02-05T14:12:13.993Z,23.00
2023-02-05T14:14:43.458Z,22.90
2023-02-05T14:17:53.972Z,22.80
2023-02-05T14:20:39.748Z,22.80
2023-02-05T14:23:17.962Z,22.70
2023-02-05T14:26:12.040Z,22.70
2023-02-05T14:28:53.047Z,22.50
2023-02-05T14:31:50.219Z,22.50
2023-02-05T14:34:47.727Z,22.50
2023-02-05T14:37:37.385Z,22.50
2023-02-05T14:40:29.607Z,22.40
2023-02-05T14:43:10.387Z,22.40
2023-02-05T14:45:47.193Z,22.30
2023-02-05T14:48:23.830Z,22.30
2023-02-05T14:51:07.719Z,22.30
2023-02-05T14:53:39.646Z,22.40
2023-02-05T14:56:08.840Z,22.30
2023-02-05T14:58:40.728Z,22.30
2023-02-05T15:01:44.703Z,22.30
2023-02-05T15:04:27.367Z,22.30
2023-02-05T15:06:58.092Z,22.30
2023-02-05T15:09:41.210Z,22.20
2023-02-05T15:12:43.458Z,22.20
2023-02-05T15:15:31.444Z,22.20
2023-02-05T15:18:07.368Z,22.30
2023-02-05T15:20:40.022Z,22.20
2023-02-05T15:23:26.502Z,22.20
2023-02-05T15:26:02.476Z,22.20
2023-02-05T15:28:36.667Z,22.20
2023-02-05T15:31:23.143Z,22.20
2023-02-05T15:34:01.226Z,22.20
2023-02-05T15:36:38.584Z,22.20
2023-02-05T15:39:19.781Z,22.20
2023-02-05T15:41:50.405Z,22.20
2023-02-05T15:44:27.992Z,22.20
2023-02-05T15:46:58.713Z,22.20
2023-02-05T15:49:37.828Z,22.20
2023-02-05T15:52:07.191Z,22.30
2023-02-05T15:54:38.151Z,22.50
2023-02-05T15:57:18.914Z,22.50
2023-02-05T15:59:48.333Z,22.30
2023-02-05T16:02:20.942Z,22.50
2023-02-05T16:04:57.390Z,22.80
2023-02-05T16:07:29.431Z,23.20
